createdAt,value
2022-11-29T00:01:50.770Z,19.27
2022-11-29T00:04:20.230Z,20.35
2022-11-29T00:06:49.778Z,20.40
2022-11-29T00:09:19.355Z,19.50
2022-11-29T00:12:03.925Z,20.17
2022-11-29T00:14:33.524Z,27.90
2022-11-29T00:17:04.509Z,48.07
2022-11-29T00:19:34.559Z,22.20
2022-11-29T00:22:04.230Z,20.93
2022-11-29T00:24:34.768Z,18.00
2022-11-29T00:27:07.256Z,20.00
2022-11-29T00:29:36.779Z,16.55
2022-11-29T00:32:06.717Z,17.45
2022-11-29T00:34:36.199Z,17.60
2022-11-29T00:37:05.744Z,18.65
2022-11-29T00:39:35.309Z,17.60
2022-11-29T00:42:07.549Z,16.38
2022-11-29T00:44:37.060Z,19.88
2022-11-29T00:47:06.630Z,19.05
2022-11-29T00:49:36.269Z,18.20
2022-11-29T00:52:06.051Z,18.97
2022-11-29T00:54:35.525Z,18.75
2022-11-29T00:57:07.745Z,18.60
2022-11-29T00:59:37.428Z,18.58
2022-11-29T01:02:07.046Z,16.17
2022-11-29T01:04:36.598Z,16.92
2022-11-29T01:07:06.274Z,17.73
2022-11-29T01:09:35.847Z,18.17
2022-11-29T01:12:08.224Z,17.38
2022-11-29T01:14:37.779Z,17.27
2022-11-29T01:17:07.513Z,18.17
2022-11-29T01:19:37.095Z,20.77
2022-11-29T01:22:06.562Z,18.85
2022-11-29T01:24:36.206Z,21.77
2022-11-29T01:27:08.461Z,17.92
2022-11-29T01:29:38.087Z,18.42
2022-11-29T01:32:07.786Z,20.30
2022-11-29T01:34:37.383Z,19.40
2022-11-29T01:37:06.922Z,18.80
2022-11-29T01:39:36.434Z,19.40
2022-11-29T01:42:08.702Z,19.25
2022-11-29T01:45:08.103Z,21.95
2022-11-29T01:47:42.384Z,18.15
2022-11-29T01:50:13.114Z,19.47
2022-11-29T01:52:43.540Z,20.33
2022-11-29T01:55:14.943Z,18.57
2022-11-29T01:57:47.887Z,18.60
2022-11-29T02:00:20.508Z,18.30
2022-11-29T02:02:55.229Z,19.67
2022-11-29T02:05:25.327Z,17.23
2022-11-29T02:07:59.281Z,17.95
2022-11-29T02:10:42.456Z,24.70
2022-11-29T02:13:24.348Z,23.17
2022-11-29T02:16:01.213Z,21.80
2022-11-29T02:18:44.543Z,22.40
2022-11-29T02:21:41.311Z,20.50
2022-11-29T02:24:45.924Z,21.75
2022-11-29T02:27:39.278Z,21.00
2022-11-29T02:30:22.596Z,20.58
2022-11-29T02:33:18.459Z,22.53
2022-11-29T02:36:14.764Z,23.07
2022-11-29T02:39:11.267Z,20.53
2022-11-29T02:41:59.715Z,24.02
2022-11-29T02:44:47.949Z,21.70
2022-11-29T02:47:29.170Z,21.85
2022-11-29T02:50:30.080Z,19.27
2022-11-29T02:53:09.145Z,21.75
2022-11-29T02:55:46.028Z,19.83
2022-11-29T02:58:23.851Z,23.47
2022-11-29T03:01:01.927Z,22.73
2022-11-29T03:03:41.376Z,20.50
2022-11-29T03:06:21.343Z,21.85
2022-11-29T03:08:58.751Z,23.70
2022-11-29T03:11:37.141Z,22.13
2022-11-29T03:14:17.707Z,21.07
2022-11-29T03:16:54.478Z,22.52
2022-11-29T03:19:39.227Z,23.03
2022-11-29T03:22:17.945Z,21.15
2022-11-29T03:24:56.636Z,21.00
2022-11-29T03:27:32.418Z,21.43
2022-11-29T03:30:05.295Z,21.90
2022-11-29T03:32:44.243Z,21.25
2022-11-29T03:35:20.890Z,21.53
2022-11-29T03:38:00.716Z,23.30
2022-11-29T03:40:36.432Z,24.27
2022-11-29T03:43:12.007Z,21.58
2022-11-29T03:45:48.195Z,23.93
2022-11-29T03:48:22.019Z,20.37
2022-11-29T03:50:56.948Z,23.38
2022-11-29T03:53:36.229Z,25.42
2022-11-29T03:56:24.694Z,20.80
2022-11-29T03:59:02.778Z,23.67
2022-11-29T04:01:53.802Z,24.80
2022-11-29T04:04:50.313Z,24.45
2022-11-29T04:07:37.379Z,22.97
2022-11-29T04:10:22.620Z,21.57
2022-11-29T04:13:10.062Z,25.20
2022-11-29T04:16:07.617Z,24.60
2022-11-29T04:18:53.147Z,23.48
2022-11-29T04:21:58.082Z,25.48
2022-11-29T04:24:55.130Z,26.55
2022-11-29T04:27:56.565Z,24.98
2022-11-29T04:30:27.516Z,28.30
2022-11-29T04:33:29.625Z,24.43
2022-11-29T04:36:28.984Z,23.77
2022-11-29T04:39:30.530Z,23.73
2022-11-29T04:42:28.521Z,25.57
2022-11-29T04:45:20.634Z,24.92
2022-11-29T04:48:02.000Z,24.73
2022-11-29T04:50:48.072Z,24.05
2022-11-29T04:53:47.797Z,23.70
2022-11-29T04:56:26.350Z,23.45
2022-11-29T04:59:06.001Z,22.57
2022-11-29T05:01:52.330Z,23.08
2022-11-29T05:04:26.228Z,25.40
2022-11-29T05:07:04.401Z,25.60
2022-11-29T05:09:58.924Z,27.77
2022-11-29T05:12:36.529Z,24.88
2022-11-29T05:15:30.442Z,23.80
2022-11-29T05:18:10.426Z,27.95
2022-11-29T05:20:48.102Z,23.13
2022-11-29T05:23:36.339Z,24.58
2022-11-29T05:26:12.142Z,28.13
2022-11-29T05:28:52.212Z,31.25
2022-11-29T05:31:28.673Z,26.13
2022-11-29T05:34:34.724Z,26.35
2022-11-29T05:37:15.756Z,25.77
2022-11-29T05:39:58.863Z,25.77
2022-11-29T05:43:06.191Z,28.58
2022-11-29T05:45:44.162Z,28.97
2022-11-29T05:48:22.434Z,27.55
2022-11-29T05:51:13.953Z,28.30
2022-11-29T05:53:52.192Z,25.20
2022-11-29T05:56:36.000Z,27.45
2022-11-29T05:59:10.993Z,80.97
2022-11-29T06:01:50.223Z,45.27
2022-11-29T06:04:28.855Z,32.30
2022-11-29T06:07:05.437Z,29.80
2022-11-29T06:09:40.745Z,80.68
2022-11-29T06:12:21.027Z,44.50
2022-11-29T06:15:10.616Z,30.38
2022-11-29T06:17:58.607Z,28.25
2022-11-29T06:20:45.065Z,28.27
2022-11-29T06:23:37.073Z,28.75
2022-11-29T06:26:18.842Z,33.67
2022-11-29T06:29:03.406Z,30.42
2022-11-29T06:31:39.990Z,31.00
2022-11-29T06:34:16.178Z,37.83
2022-11-29T06:36:51.110Z,32.15
2022-11-29T06:39:24.665Z,31.40
2022-11-29T06:41:54.317Z,34.53
2022-11-29T06:44:24.616Z,43.40
2022-11-29T06:47:05.208Z,32.70
2022-11-29T06:49:41.531Z,32.53
2022-11-29T06:52:23.191Z,31.05
2022-11-29T06:55:10.520Z,33.93
2022-11-29T06:57:53.737Z,34.80
2022-11-29T07:00:27.121Z,81.80
2022-11-29T07:03:11.350Z,52.77
2022-11-29T07:05:41.488Z,108.53
2022-11-29T07:08:18.933Z,73.07
2022-11-29T07:10:54.151Z,75.03
2022-11-29T07:13:25.547Z,46.80
2022-11-29T07:16:06.119Z,43.37
2022-11-29T07:18:46.315Z,33.73
2022-11-29T07:21:25.336Z,31.17
2022-11-29T07:24:03.306Z,64.40
2022-11-29T07:26:42.875Z,46.63
2022-11-29T07:29:36.822Z,74.80
2022-11-29T07:32:12.514Z,54.73
2022-11-29T07:34:55.551Z,36.10
2022-11-29T07:37:35.405Z,36.80
2022-11-29T07:40:14.405Z,73.60
2022-11-29T07:42:55.968Z,39.35
2022-11-29T07:45:31.895Z,33.07
2022-11-29T07:48:01.802Z,38.22
2022-11-29T07:50:32.524Z,34.85
2022-11-29T07:53:03.260Z,34.15
2022-11-29T07:55:34.791Z,29.63
2022-11-29T07:58:07.039Z,36.00
2022-11-29T08:00:36.606Z,31.02
2022-11-29T08:03:07.284Z,35.30
2022-11-29T08:05:36.792Z,48.22
2022-11-29T08:08:06.700Z,83.40
2022-11-29T08:10:36.214Z,60.77
2022-11-29T08:13:08.475Z,44.50
2022-11-29T08:15:38.043Z,35.93
2022-11-29T08:18:07.844Z,40.47
2022-11-29T08:20:39.271Z,35.10
2022-11-29T08:23:08.881Z,47.03
2022-11-29T08:25:38.365Z,39.50
2022-11-29T08:28:11.104Z,34.90
2022-11-29T08:30:40.791Z,32.60
2022-11-29T08:33:10.422Z,29.67
2022-11-29T08:35:39.991Z,37.87
2022-11-29T08:38:10.660Z,38.20
2022-11-29T08:40:40.194Z,35.88
2022-11-29T08:43:12.347Z,101.23
2022-11-29T08:45:41.886Z,328.50
2022-11-29T08:48:11.698Z,122.85
2022-11-29T08:50:41.275Z,79.82
2022-11-29T08:53:24.202Z,63.83
2022-11-29T08:55:53.751Z,64.70
2022-11-29T08:58:25.831Z,49.30
2022-11-29T09:00:55.879Z,36.13
2022-11-29T09:03:38.358Z,43.70
2022-11-29T09:06:12.186Z,34.00
2022-11-29T09:08:43.735Z,33.33
2022-11-29T09:11:15.335Z,36.00
2022-11-29T09:13:49.490Z,50.33
2022-11-29T09:16:21.249Z,44.92
2022-11-29T09:18:52.366Z,37.63
2022-11-29T09:21:22.071Z,38.20
2022-11-29T09:23:57.662Z,73.20
2022-11-29T09:26:29.335Z,39.33
2022-11-29T09:29:02.400Z,35.50
2022-11-29T09:31:33.462Z,42.50
2022-11-29T09:34:03.133Z,38.22
2022-11-29T09:36:33.468Z,32.07
2022-11-29T09:39:05.455Z,30.70
2022-11-29T09:42:03.930Z,38.97
2022-11-29T09:44:47.483Z,38.42
2022-11-29T09:47:34.762Z,34.70
2022-11-29T09:50:18.888Z,35.30
2022-11-29T09:52:55.781Z,33.20
2022-11-29T09:55:52.221Z,36.27
2022-11-29T09:58:26.337Z,34.00
2022-11-29T10:01:03.500Z,36.42
2022-11-29T10:03:37.176Z,40.87
2022-11-29T10:06:14.460Z,35.70
2022-11-29T10:08:51.287Z,34.47
2022-11-29T10:11:25.622Z,35.72
2022-11-29T10:13:59.235Z,34.95
2022-11-29T10:16:39.795Z,36.60
2022-11-29T10:19:17.999Z,31.80
2022-11-29T10:21:57.309Z,40.45
2022-11-29T10:24:31.026Z,35.58
2022-11-29T10:27:01.124Z,37.23
2022-11-29T10:29:30.633Z,41.00
2022-11-29T10:32:10.170Z,34.33
2022-11-29T10:34:40.413Z,36.67
2022-11-29T10:37:16.260Z,36.67
2022-11-29T10:39:50.568Z,38.40
2022-11-29T10:42:35.401Z,38.65
2022-11-29T10:45:56.727Z,41.03
2022-11-29T10:48:06.600Z,55.60
2022-11-29T10:50:38.353Z,39.55
2022-11-29T10:53:11.167Z,42.00
2022-11-29T10:55:46.888Z,47.47
2022-11-29T10:58:23.369Z,61.83
2022-11-29T11:00:58.664Z,70.05
2022-11-29T11:03:38.663Z,49.75
2022-11-29T11:06:14.583Z,52.08
2022-11-29T11:08:46.523Z,55.43
2022-11-29T11:11:17.514Z,50.90
2022-11-29T11:13:59.889Z,46.13
2022-11-29T11:16:32.866Z,42.58
2022-11-29T11:19:28.384Z,41.35
2022-11-29T11:21:58.831Z,40.03
2022-11-29T11:24:31.572Z,40.30
2022-11-29T11:27:02.679Z,41.33
2022-11-29T11:29:38.466Z,42.87
2022-11-29T11:32:18.219Z,44.22
2022-11-29T11:34:57.485Z,74.78
2022-11-29T11:37:29.506Z,47.20
2022-11-29T11:40:01.188Z,41.10
2022-11-29T11:42:42.850Z,50.47
2022-11-29T11:45:34.032Z,43.67
2022-11-29T11:48:06.845Z,47.22
2022-11-29T11:50:45.482Z,53.80
2022-11-29T11:53:24.249Z,80.53
2022-11-29T11:56:00.570Z,51.13
2022-11-29T11:58:32.634Z,50.77
2022-11-29T12:01:16.539Z,54.80
2022-11-29T12:03:57.798Z,56.77
2022-11-29T12:06:41.103Z,51.05
2022-11-29T12:09:19.489Z,51.83
2022-11-29T12:11:57.000Z,55.45
2022-11-29T12:14:35.467Z,50.30
2022-11-29T12:17:19.807Z,54.65
2022-11-29T12:20:02.566Z,53.63
2022-11-29T12:22:43.912Z,66.72
2022-11-29T12:25:22.627Z,68.75
2022-11-29T12:27:52.302Z,66.70
2022-11-29T12:30:23.098Z,61.27
2022-11-29T12:33:07.079Z,56.03
2022-11-29T12:36:11.521Z,63.78
2022-11-29T12:39:18.834Z,65.80
2022-11-29T12:41:57.387Z,61.42
2022-11-29T12:44:43.561Z,59.80
2022-11-29T12:47:39.990Z,61.70
2022-11-29T12:50:33.681Z,62.45
2022-11-29T12:53:16.375Z,63.28
2022-11-29T12:55:55.055Z,82.30
2022-11-29T12:58:33.695Z,93.68
2022-11-29T13:01:14.289Z,89.78
2022-11-29T13:03:54.965Z,82.65
2022-11-29T13:06:32.102Z,90.95
2022-11-29T13:09:45.362Z,87.75
2022-11-29T13:12:23.817Z,81.72
2022-11-29T13:15:02.181Z,61.72
2022-11-29T13:17:42.046Z,70.93
2022-11-29T13:20:32.682Z,69.72
2022-11-29T13:23:11.142Z,64.63
2022-11-29T13:25:44.264Z,57.55
2022-11-29T13:28:24.105Z,55.80
2022-11-29T13:30:55.218Z,53.42
2022-11-29T13:33:30.632Z,64.75
2022-11-29T13:36:10.773Z,67.15
2022-11-29T13:38:45.015Z,64.80
2022-11-29T13:41:20.960Z,67.10
2022-11-29T13:44:02.365Z,66.93
2022-11-29T13:46:46.414Z,61.25
2022-11-29T13:49:23.571Z,66.45
2022-11-29T13:52:08.098Z,64.65
2022-11-29T13:54:37.730Z,67.63
2022-11-29T13:57:09.336Z,75.90
2022-11-29T13:59:47.495Z,61.85
2022-11-29T14:02:31.476Z,73.03
2022-11-29T14:05:01.610Z,73.18
2022-11-29T14:07:33.325Z,68.63
2022-11-29T14:10:06.048Z,67.65
2022-11-29T14:12:43.496Z,65.37
2022-11-29T14:15:34.583Z,73.70
2022-11-29T14:18:08.376Z,68.88
2022-11-29T14:20:57.894Z,73.17
2022-11-29T14:23:41.978Z,74.57
2022-11-29T14:26:30.822Z,77.50
2022-11-29T14:29:01.628Z,81.43
2022-11-29T14:31:56.609Z,77.10
2022-11-29T14:34:52.953Z,77.50
2022-11-29T14:37:50.287Z,73.18
2022-11-29T14:40:31.919Z,71.17
2022-11-29T14:43:03.628Z,71.18
2022-11-29T14:45:36.009Z,77.35
2022-11-29T14:48:08.572Z,121.80
2022-11-29T14:50:40.273Z,87.95
2022-11-29T14:53:30.043Z,79.55
2022-11-29T14:56:29.434Z,126.67
2022-11-29T14:59:28.795Z,78.57
2022-11-29T15:01:59.394Z,73.05
2022-11-29T15:04:37.172Z,114.03
2022-11-29T15:07:08.638Z,83.37
2022-11-29T15:09:40.014Z,73.30
2022-11-29T15:12:13.356Z,74.05
2022-11-29T15:14:49.982Z,237.05
2022-11-29T15:17:28.611Z,92.78
2022-11-29T15:20:30.487Z,73.78
2022-11-29T15:23:03.119Z,75.55
2022-11-29T15:25:34.675Z,73.70
2022-11-29T15:28:06.511Z,75.95
2022-11-29T15:30:39.084Z,66.97
2022-11-29T15:33:11.585Z,70.03
2022-11-29T15:35:51.020Z,70.60
2022-11-29T15:38:21.272Z,67.72
2022-11-29T15:40:55.313Z,70.20
2022-11-29T15:43:27.355Z,71.75
2022-11-29T15:46:01.292Z,69.22
2022-11-29T15:48:31.936Z,68.03
2022-11-29T15:51:07.851Z,66.72
2022-11-29T15:53:44.655Z,71.88
2022-11-29T15:56:18.189Z,67.35
2022-11-29T15:58:50.511Z,92.40
2022-11-29T16:01:23.863Z,79.47
2022-11-29T16:03:56.150Z,75.10
2022-11-29T16:06:32.267Z,72.60
2022-11-29T16:09:03.538Z,76.75
2022-11-29T16:11:34.814Z,74.13
2022-11-29T16:14:16.831Z,72.45
2022-11-29T16:16:50.137Z,76.97
2022-11-29T16:19:28.790Z,79.75
2022-11-29T16:22:17.862Z,136.95
2022-11-29T16:24:56.089Z,128.25
2022-11-29T16:27:26.409Z,114.82
2022-11-29T16:29:57.795Z,85.03
2022-11-29T16:32:30.573Z,76.95
2022-11-29T16:35:09.386Z,80.90
2022-11-29T16:37:44.477Z,80.88
2022-11-29T16:40:24.705Z,78.38
2022-11-29T16:43:11.073Z,79.18
2022-11-29T16:45:42.530Z,79.65
2022-11-29T16:48:31.997Z,81.15
2022-11-29T16:51:20.860Z,90.15
2022-11-29T16:53:54.337Z,84.72
2022-11-29T16:56:26.976Z,85.00
2022-11-29T16:59:24.709Z,82.20
2022-11-29T17:01:48.024Z,84.63
2022-11-29T17:04:24.377Z,82.38
2022-11-29T17:06:54.895Z,74.97
2022-11-29T17:09:29.989Z,94.88
2022-11-29T17:12:00.498Z,75.72
2022-11-29T17:14:30.328Z,82.72
2022-11-29T17:17:03.766Z,78.93
2022-11-29T17:19:33.904Z,82.55
2022-11-29T17:22:03.612Z,91.30
2022-11-29T17:24:36.026Z,89.28
2022-11-29T17:27:05.572Z,93.03
2022-11-29T17:29:35.226Z,81.75
2022-11-29T17:32:04.811Z,78.60
2022-11-29T17:34:34.737Z,83.20
2022-11-29T17:37:04.485Z,80.90
2022-11-29T17:39:36.651Z,79.70
2022-11-29T17:42:06.479Z,75.40
2022-11-29T17:44:36.548Z,80.88
2022-11-29T17:47:06.203Z,78.30
2022-11-29T17:49:35.964Z,73.27
2022-11-29T17:52:05.621Z,103.40
2022-11-29T17:54:37.684Z,83.50
2022-11-29T17:57:07.253Z,83.47
2022-11-29T17:59:36.878Z,83.80
2022-11-29T18:02:06.519Z,85.40
2022-11-29T18:04:37.503Z,72.75
2022-11-29T18:07:07.077Z,87.27
2022-11-29T18:09:39.342Z,82.47
2022-11-29T18:12:09.006Z,78.82
2022-11-29T18:14:40.957Z,70.22
2022-11-29T18:17:11.095Z,82.53
2022-11-29T18:19:43.881Z,71.47
2022-11-29T18:22:13.752Z,145.18
2022-11-29T18:24:46.190Z,75.03
2022-11-29T18:27:17.590Z,84.00
2022-11-29T18:29:47.272Z,191.50
2022-11-29T18:32:16.960Z,73.53
2022-11-29T18:34:46.750Z,77.53
2022-11-29T18:37:32.885Z,87.50
2022-11-29T18:40:10.226Z,75.28
2022-11-29T18:42:39.763Z,69.60
2022-11-29T18:45:10.330Z,78.47
2022-11-29T18:47:40.067Z,114.47
2022-11-29T18:50:13.885Z,91.97
2022-11-29T18:52:43.547Z,71.30
2022-11-29T18:55:15.729Z,78.30
2022-11-29T18:57:45.353Z,65.87
2022-11-29T19:00:16.399Z,75.20
2022-11-29T19:02:46.034Z,77.72
2022-11-29T19:05:15.875Z,77.72
2022-11-29T19:07:48.530Z,75.65
2022-11-29T19:10:20.842Z,69.47
2022-11-29T19:12:50.424Z,72.50
2022-11-29T19:15:20.086Z,71.80
2022-11-29T19:17:49.695Z,74.70
2022-11-29T19:20:19.405Z,76.75
2022-11-29T19:22:48.912Z,62.22
2022-11-29T19:25:21.354Z,71.97
2022-11-29T19:27:51.118Z,73.77
2022-11-29T19:30:22.371Z,70.38
2022-11-29T19:32:52.517Z,63.78
2022-11-29T19:35:22.460Z,71.40
2022-11-29T19:37:52.108Z,64.57
2022-11-29T19:40:24.679Z,72.03
2022-11-29T19:42:54.448Z,63.17
2022-11-29T19:45:25.134Z,76.63
2022-11-29T19:47:54.965Z,73.70
2022-11-29T19:50:25.865Z,70.88
2022-11-29T19:52:55.460Z,67.32
2022-11-29T19:55:27.649Z,61.78
2022-11-29T19:57:58.091Z,63.97
2022-11-29T20:00:28.437Z,69.30
2022-11-29T20:02:58.130Z,68.82
2022-11-29T20:05:27.880Z,70.95
2022-11-29T20:07:57.763Z,71.35
2022-11-29T20:10:30.299Z,68.57
2022-11-29T20:12:59.884Z,68.13
2022-11-29T20:15:29.718Z,64.22
2022-11-29T20:17:59.271Z,66.00
2022-11-29T20:20:29.749Z,63.97
2022-11-29T20:22:59.414Z,62.38
2022-11-29T20:25:31.888Z,69.30
2022-11-29T20:28:01.366Z,70.25
2022-11-29T20:30:31.039Z,69.40
2022-11-29T20:33:00.829Z,70.72
2022-11-29T20:35:31.330Z,64.13
2022-11-29T20:38:14.734Z,62.13
2022-11-29T20:41:02.641Z,64.17
2022-11-29T20:43:41.505Z,66.45
2022-11-29T20:46:11.637Z,63.08
2022-11-29T20:48:41.832Z,66.13
2022-11-29T20:51:13.891Z,61.08
2022-11-29T20:53:46.263Z,65.68
2022-11-29T20:56:18.542Z,61.97
2022-11-29T20:58:48.126Z,63.17
2022-11-29T21:01:17.699Z,61.13
2022-11-29T21:03:47.404Z,65.30
2022-11-29T21:06:17.039Z,63.42
2022-11-29T21:08:46.688Z,55.42
2022-11-29T21:11:19.640Z,54.28
2022-11-29T21:13:49.829Z,62.03
2022-11-29T21:16:20.122Z,60.90
2022-11-29T21:18:51.555Z,56.15
2022-11-29T21:21:27.750Z,58.73
2022-11-29T21:24:06.790Z,57.28
2022-11-29T21:26:43.960Z,55.90
2022-11-29T21:29:19.345Z,54.67
2022-11-29T21:31:51.153Z,53.90
2022-11-29T21:34:20.718Z,50.45
2022-11-29T21:36:56.213Z,57.63
2022-11-29T21:39:29.716Z,50.67
2022-11-29T21:42:02.081Z,52.27
2022-11-29T21:44:31.883Z,49.70
2022-11-29T21:47:01.513Z,50.07
2022-11-29T21:49:31.201Z,52.60
2022-11-29T21:52:01.171Z,51.90
2022-11-29T21:54:31.299Z,44.97
2022-11-29T21:57:03.963Z,48.33
2022-11-29T21:59:33.564Z,50.90
2022-11-29T22:02:03.629Z,42.90
2022-11-29T22:04:33.576Z,45.38
2022-11-29T22:07:03.303Z,44.58
2022-11-29T22:09:32.915Z,43.72
2022-11-29T22:12:25.877Z,46.97
2022-11-29T22:14:55.243Z,43.50
2022-11-29T22:17:24.927Z,42.75
2022-11-29T22:19:54.551Z,40.00
2022-11-29T22:22:27.176Z,37.63
2022-11-29T22:24:58.324Z,37.13
2022-11-29T22:27:30.855Z,43.30
2022-11-29T22:30:00.572Z,41.63
2022-11-29T22:32:30.419Z,39.65
2022-11-29T22:35:00.093Z,42.15
2022-11-29T22:37:29.974Z,38.73
2022-11-29T22:39:59.635Z,40.20
2022-11-29T22:42:32.585Z,40.93
2022-11-29T22:45:04.292Z,39.70
2022-11-29T22:47:34.270Z,44.37
2022-11-29T22:50:04.047Z,42.38
2022-11-29T22:52:33.753Z,41.97
2022-11-29T22:55:05.278Z,44.45
2022-11-29T22:57:37.802Z,38.80
2022-11-29T23:00:09.165Z,45.15
2022-11-29T23:02:38.828Z,41.25
2022-11-29T23:05:09.324Z,44.63
2022-11-29T23:07:39.009Z,41.85
2022-11-29T23:10:11.009Z,42.58
2022-11-29T23:12:44.905Z,41.47
2022-11-29T23:15:14.584Z,42.57
2022-11-29T23:17:44.413Z,43.08
2022-11-29T23:20:14.967Z,39.45
2022-11-29T23:22:44.964Z,43.47
2022-11-29T23:25:15.610Z,42.95
2022-11-29T23:27:48.145Z,43.67
2022-11-29T23:30:17.906Z,39.38
2022-11-29T23:32:47.620Z,47.83
2022-11-29T23:35:17.730Z,40.90
2022-11-29T23:37:47.498Z,45.97
2022-11-29T23:40:17.453Z,47.40
2022-11-29T23:42:53.732Z,45.20
2022-11-29T23:45:24.415Z,43.70
2022-11-29T23:47:54.722Z,41.25
2022-11-29T23:50:24.414Z,44.97
2022-11-29T23:52:57.456Z,43.42
2022-11-29T23:55:27.988Z,48.17
2022-11-29T23:58:03.709Z,44.77
